createdAt,value
2022-11-25T00:00:06.877Z,10.90
2022-11-25T00:01:06.873Z,10.30
2022-11-25T00:02:06.935Z,9.80
2022-11-25T00:03:06.944Z,10.70
2022-11-25T00:04:06.813Z,11.50
2022-11-25T00:05:06.852Z,11.40
2022-11-25T00:06:06.813Z,10.70
2022-11-25T00:07:06.840Z,11.30
2022-11-25T00:08:06.762Z,11.00
2022-11-25T00:09:06.779Z,10.60
2022-11-25T00:10:06.763Z,11.00
2022-11-25T00:11:06.762Z,9.90
2022-11-25T00:12:06.694Z,10.20
2022-11-25T00:13:06.729Z,9.70
2022-11-25T00:14:06.672Z,10.40
2022-11-25T00:15:06.714Z,10.90
2022-11-25T00:16:06.697Z,10.40
2022-11-25T00:17:06.706Z,10.30
2022-11-25T00:18:06.644Z,11.90
2022-11-25T00:19:06.645Z,11.80
2022-11-25T00:20:06.644Z,11.50
2022-11-25T00:21:06.602Z,11.90
2022-11-25T00:22:06.578Z,11.90
2022-11-25T00:23:06.586Z,12.90
2022-11-25T00:24:06.553Z,14.50
2022-11-25T00:25:06.592Z,14.80
2022-11-25T00:26:06.537Z,15.00
2022-11-25T00:27:06.546Z,15.30
2022-11-25T00:28:06.517Z,14.90
2022-11-25T00:29:06.510Z,14.70
2022-11-25T00:30:06.472Z,14.30
2022-11-25T00:31:06.481Z,14.10
2022-11-25T00:32:06.521Z,13.50
2022-11-25T00:33:06.477Z,12.80
2022-11-25T00:34:06.448Z,13.80
2022-11-25T00:35:06.442Z,13.70
2022-11-25T00:36:06.409Z,14.30
2022-11-25T00:37:06.405Z,13.20
2022-11-25T00:38:06.404Z,13.30
2022-11-25T00:39:06.389Z,13.50
2022-11-25T00:40:06.339Z,13.20
2022-11-25T00:41:06.357Z,13.70
2022-11-25T00:42:06.331Z,14.60
2022-11-25T00:43:06.347Z,13.20
2022-11-25T00:44:06.283Z,12.20
2022-11-25T00:45:06.327Z,12.90
2022-11-25T00:46:06.328Z,12.50
2022-11-25T00:47:06.280Z,11.80
2022-11-25T00:48:06.246Z,11.60
2022-11-25T00:49:06.244Z,11.50
2022-11-25T00:50:06.256Z,12.00
2022-11-25T00:51:06.235Z,10.50
2022-11-25T00:52:06.198Z,10.00
2022-11-25T00:53:06.224Z,10.70
2022-11-25T00:54:06.157Z,10.40
2022-11-25T00:55:06.221Z,10.80
2022-11-25T00:56:06.135Z,10.40
2022-11-25T00:57:06.152Z,10.40
2022-11-25T00:58:06.108Z,11.40
2022-11-25T00:59:06.135Z,10.70
2022-11-25T01:00:06.147Z,11.00
2022-11-25T01:01:06.171Z,11.60
2022-11-25T01:02:06.113Z,10.70
2022-11-25T01:03:06.071Z,10.80
2022-11-25T01:04:06.035Z,10.80
2022-11-25T01:05:06.045Z,11.10
2022-11-25T01:06:06.034Z,11.00
2022-11-25T01:07:06.031Z,10.70
2022-11-25T01:08:05.984Z,10.80
2022-11-25T01:09:06.000Z,10.60
2022-11-25T01:10:05.968Z,11.80
2022-11-25T01:11:05.987Z,11.50
2022-11-25T01:12:05.949Z,10.90
2022-11-25T01:13:05.955Z,12.90
2022-11-25T01:14:05.907Z,15.20
2022-11-25T01:15:05.915Z,17.60
2022-11-25T01:16:05.940Z,13.40
2022-11-25T01:17:05.914Z,19.60
2022-11-25T01:18:05.845Z,23.30
2022-11-25T01:19:05.898Z,12.60
2022-11-25T01:20:05.868Z,13.10
2022-11-25T01:21:05.858Z,12.00
2022-11-25T01:22:05.801Z,11.40
2022-11-25T01:23:05.822Z,11.20
2022-11-25T01:24:05.780Z,11.90
2022-11-25T01:25:05.820Z,10.80
2022-11-25T01:26:05.756Z,11.40
2022-11-25T01:27:05.757Z,10.80
2022-11-25T01:28:05.748Z,11.90
2022-11-25T01:29:05.783Z,11.60
2022-11-25T01:30:05.694Z,11.60
2022-11-25T01:31:05.712Z,12.00
2022-11-25T01:32:05.793Z,13.10
2022-11-25T01:33:05.660Z,12.60
2022-11-25T01:34:05.700Z,13.50
2022-11-25T01:35:05.646Z,13.50
2022-11-25T01:36:05.646Z,13.30
2022-11-25T01:37:05.627Z,12.60
2022-11-25T01:38:05.623Z,12.30
2022-11-25T01:39:05.594Z,14.10
2022-11-25T01:40:05.617Z,13.10
2022-11-25T01:41:06.523Z,12.50
2022-11-25T01:42:05.564Z,11.90
2022-11-25T01:43:05.540Z,12.30
2022-11-25T01:44:05.542Z,12.30
2022-11-25T01:45:05.511Z,13.80
2022-11-25T01:46:05.622Z,13.60
2022-11-25T01:47:05.492Z,12.50
2022-11-25T01:48:05.498Z,12.50
2022-11-25T01:49:05.502Z,13.10
2022-11-25T01:50:05.492Z,13.70
2022-11-25T01:51:05.439Z,12.30
2022-11-25T01:52:05.478Z,12.50
2022-11-25T01:53:05.399Z,13.10
2022-11-25T01:54:05.431Z,12.20
2022-11-25T01:55:05.372Z,13.10
2022-11-25T01:56:05.389Z,12.10
2022-11-25T01:57:05.372Z,12.10
2022-11-25T01:58:05.361Z,13.30
2022-11-25T01:59:05.326Z,12.20
2022-11-25T02:00:05.363Z,12.30
2022-11-25T02:01:05.392Z,12.10
2022-11-25T02:02:05.366Z,12.80
2022-11-25T02:03:05.274Z,13.30
2022-11-25T02:04:05.319Z,13.50
2022-11-25T02:05:05.254Z,13.70
2022-11-25T02:06:05.259Z,13.90
2022-11-25T02:07:05.255Z,13.50
2022-11-25T02:08:05.240Z,13.80
2022-11-25T02:09:05.221Z,12.90
2022-11-25T02:10:05.204Z,14.50
2022-11-25T02:11:05.178Z,13.00
2022-11-25T02:12:05.191Z,13.70
2022-11-25T02:13:05.173Z,13.90
2022-11-25T02:14:05.163Z,13.20
2022-11-25T02:15:05.124Z,13.40
2022-11-25T02:16:05.198Z,13.40
2022-11-25T02:17:05.094Z,12.10
2022-11-25T02:18:05.116Z,13.30
2022-11-25T02:19:05.095Z,12.90
2022-11-25T02:20:05.176Z,12.90
2022-11-25T02:21:05.068Z,12.60
2022-11-25T02:22:05.069Z,12.60
2022-11-25T02:23:05.024Z,11.60
2022-11-25T02:24:05.053Z,10.70
2022-11-25T02:25:05.004Z,10.50
2022-11-25T02:26:05.025Z,10.80
2022-11-25T02:27:04.974Z,11.00
2022-11-25T02:28:04.981Z,10.60
2022-11-25T02:29:04.939Z,11.40
2022-11-25T02:30:04.988Z,11.30
2022-11-25T02:31:04.941Z,11.20
2022-11-25T02:32:04.982Z,11.80
2022-11-25T02:33:04.876Z,11.00
2022-11-25T02:34:04.899Z,11.00
2022-11-25T02:35:04.873Z,12.20
2022-11-25T02:36:04.896Z,11.00
2022-11-25T02:37:04.852Z,11.40
2022-11-25T02:38:04.837Z,11.70
2022-11-25T02:39:04.825Z,11.80
2022-11-25T02:40:04.828Z,11.70
2022-11-25T02:41:04.807Z,10.90
2022-11-25T02:42:04.807Z,10.80
2022-11-25T02:43:04.780Z,10.60
2022-11-25T02:44:04.772Z,10.80
2022-11-25T02:45:04.726Z,10.70
2022-11-25T02:46:04.869Z,10.40
2022-11-25T02:47:04.716Z,10.40
2022-11-25T02:48:04.756Z,9.80
2022-11-25T02:49:09.264Z,10.10
2022-11-25T02:50:04.708Z,9.80
2022-11-25T02:51:04.679Z,9.60
2022-11-25T02:52:04.675Z,11.00
2022-11-25T02:53:04.635Z,10.40
2022-11-25T02:54:04.680Z,10.80
2022-11-25T02:55:04.604Z,10.20
2022-11-25T02:56:04.630Z,10.70
2022-11-25T02:57:04.589Z,10.30
2022-11-25T02:58:04.613Z,10.80
2022-11-25T02:59:04.580Z,11.00
2022-11-25T03:00:04.586Z,10.70
2022-11-25T03:01:04.578Z,11.10
2022-11-25T03:02:04.609Z,11.10
2022-11-25T03:03:04.492Z,10.90
2022-11-25T03:04:04.527Z,11.10
2022-11-25T03:05:04.479Z,10.50
2022-11-25T03:06:04.483Z,10.70
2022-11-25T03:07:04.468Z,11.00
2022-11-25T03:08:04.479Z,10.00
2022-11-25T03:09:04.442Z,10.60
2022-11-25T03:10:04.448Z,10.20
2022-11-25T03:11:04.397Z,10.70
2022-11-25T03:12:04.452Z,9.00
2022-11-25T03:13:04.381Z,10.00
2022-11-25T03:14:04.385Z,10.40
2022-11-25T03:15:04.381Z,10.20
2022-11-25T03:16:04.410Z,10.50
2022-11-25T03:17:04.335Z,9.50
2022-11-25T03:18:04.329Z,8.80
2022-11-25T03:19:04.329Z,9.50
2022-11-25T03:20:04.316Z,9.50
2022-11-25T03:21:04.304Z,9.60
2022-11-25T03:22:04.327Z,8.90
2022-11-25T03:23:04.270Z,8.80
2022-11-25T03:24:04.291Z,7.90
2022-11-25T03:25:04.223Z,8.60
2022-11-25T03:26:04.233Z,7.90
2022-11-25T03:27:04.229Z,8.50
2022-11-25T03:28:04.217Z,8.20
2022-11-25T03:29:04.174Z,8.90
2022-11-25T03:30:04.185Z,8.80
2022-11-25T03:31:04.137Z,7.90
2022-11-25T03:32:08.173Z,7.70
2022-11-25T03:33:04.137Z,8.30
2022-11-25T03:34:04.130Z,7.80
2022-11-25T03:35:04.094Z,8.40
2022-11-25T03:36:04.110Z,8.00
2022-11-25T03:37:04.225Z,8.20
2022-11-25T03:38:04.098Z,8.80
2022-11-25T03:39:04.044Z,8.30
2022-11-25T03:40:04.056Z,9.20
2022-11-25T03:41:04.016Z,8.80
2022-11-25T03:42:04.065Z,8.90
2022-11-25T03:43:03.989Z,9.80
2022-11-25T03:44:04.013Z,10.60
2022-11-25T03:45:03.966Z,10.40
2022-11-25T03:46:03.995Z,10.30
2022-11-25T03:47:03.939Z,9.10
2022-11-25T03:48:03.953Z,9.10
2022-11-25T03:49:03.929Z,9.30
2022-11-25T03:50:03.959Z,9.40
2022-11-25T03:51:03.883Z,9.00
2022-11-25T03:52:03.900Z,10.00
2022-11-25T03:53:03.858Z,9.60
2022-11-25T03:54:03.890Z,8.80
2022-11-25T03:55:03.838Z,8.70
2022-11-25T03:56:03.839Z,8.70
2022-11-25T03:57:03.816Z,8.70
2022-11-25T03:58:03.848Z,8.70
2022-11-25T03:59:03.809Z,9.10
2022-11-25T04:00:03.797Z,8.80
2022-11-25T04:01:03.807Z,8.90
2022-11-25T04:02:03.828Z,9.10
2022-11-25T04:03:03.729Z,9.90
2022-11-25T04:04:03.763Z,9.90
2022-11-25T04:05:03.703Z,9.50
2022-11-25T04:06:03.725Z,9.00
2022-11-25T04:07:03.681Z,9.70
2022-11-25T04:08:03.746Z,9.40
2022-11-25T04:09:03.687Z,8.90
2022-11-25T04:10:03.672Z,9.10
2022-11-25T04:11:03.633Z,9.10
2022-11-25T04:12:03.642Z,9.20
2022-11-25T04:13:03.618Z,8.50
2022-11-25T04:14:03.641Z,8.80
2022-11-25T04:15:03.603Z,9.00
2022-11-25T04:16:03.585Z,8.50
2022-11-25T04:17:03.613Z,8.70
2022-11-25T04:18:03.565Z,8.10
2022-11-25T04:19:03.546Z,9.00
2022-11-25T04:20:03.559Z,8.00
2022-11-25T04:21:03.497Z,8.40
2022-11-25T04:22:03.536Z,8.50
2022-11-25T04:23:03.496Z,7.70
2022-11-25T04:24:03.486Z,8.40
2022-11-25T04:25:03.471Z,8.60
2022-11-25T04:26:03.491Z,8.20
2022-11-25T04:27:03.433Z,8.70
2022-11-25T04:28:03.443Z,8.30
2022-11-25T04:29:03.396Z,7.80
2022-11-25T04:30:03.437Z,8.20
2022-11-25T04:31:03.401Z,8.80
2022-11-25T04:32:03.390Z,8.10
2022-11-25T04:33:03.369Z,8.60
2022-11-25T04:34:03.363Z,8.30
2022-11-25T04:35:03.329Z,8.20
2022-11-25T04:36:03.364Z,8.40
2022-11-25T04:37:03.297Z,8.10
2022-11-25T04:38:03.308Z,8.00
2022-11-25T04:39:03.301Z,7.30
2022-11-25T04:40:03.286Z,8.40
2022-11-25T04:41:03.243Z,7.20
2022-11-25T04:42:03.256Z,7.70
2022-11-25T04:43:09.040Z,7.00
2022-11-25T04:44:03.234Z,7.40
2022-11-25T04:46:18.718Z,8.70
2022-11-25T04:47:03.268Z,7.70
2022-11-25T04:48:03.215Z,8.60
2022-11-25T04:49:03.158Z,8.50
2022-11-25T04:50:03.164Z,8.00
2022-11-25T04:51:03.126Z,7.90
2022-11-25T04:52:03.154Z,9.00
2022-11-25T04:53:03.100Z,8.30
2022-11-25T04:54:03.131Z,7.90
2022-11-25T04:55:03.068Z,8.40
2022-11-25T04:56:03.088Z,8.00
2022-11-25T04:57:03.033Z,8.10
2022-11-25T04:58:03.062Z,9.30
2022-11-25T04:59:03.039Z,9.40
2022-11-25T05:00:03.040Z,9.20
2022-11-25T05:01:03.020Z,9.30
2022-11-25T05:02:03.039Z,9.50
2022-11-25T05:03:02.985Z,10.10
2022-11-25T05:04:02.979Z,10.00
2022-11-25T05:05:02.954Z,11.10
2022-11-25T05:06:02.955Z,11.70
2022-11-25T05:07:02.929Z,11.50
2022-11-25T05:08:02.953Z,12.10
2022-11-25T05:09:02.908Z,12.10
2022-11-25T05:10:02.896Z,13.00
2022-11-25T05:11:02.854Z,12.90
2022-11-25T05:12:02.906Z,13.00
2022-11-25T05:13:02.856Z,13.00
2022-11-25T05:14:02.882Z,13.80
2022-11-25T05:15:02.818Z,13.00
2022-11-25T05:16:02.815Z,13.20
2022-11-25T05:17:02.880Z,12.10
2022-11-25T05:18:02.807Z,12.30
2022-11-25T05:19:02.857Z,12.50
2022-11-25T05:20:02.780Z,11.50
2022-11-25T05:21:02.733Z,11.70
2022-11-25T05:22:02.742Z,11.30
2022-11-25T05:23:02.712Z,11.40
2022-11-25T05:24:02.741Z,11.30
2022-11-25T05:25:02.680Z,12.60
2022-11-25T05:26:02.694Z,11.20
2022-11-25T05:27:02.663Z,11.90
2022-11-25T05:28:02.676Z,13.30
2022-11-25T05:29:03.210Z,13.10
2022-11-25T05:30:02.661Z,11.40
2022-11-25T05:31:02.697Z,11.60
2022-11-25T05:32:02.606Z,11.90
2022-11-25T05:33:02.610Z,11.70
2022-11-25T05:34:02.612Z,10.50
2022-11-25T05:35:02.571Z,11.20
2022-11-25T05:36:02.571Z,11.60
2022-11-25T05:37:02.551Z,12.40
2022-11-25T05:38:02.546Z,11.70
2022-11-25T05:39:02.503Z,12.60
2022-11-25T05:40:02.550Z,11.70
2022-11-25T05:41:02.511Z,11.60
2022-11-25T05:42:02.487Z,11.40
2022-11-25T05:43:02.450Z,11.10
2022-11-25T05:44:02.461Z,10.90
2022-11-25T05:45:02.463Z,9.80
2022-11-25T05:46:02.482Z,11.70
2022-11-25T05:47:02.422Z,10.90
2022-11-25T05:48:02.398Z,11.50
2022-11-25T05:49:02.466Z,11.80
2022-11-25T05:50:02.358Z,14.30
2022-11-25T05:51:02.402Z,17.20
2022-11-25T05:52:02.370Z,15.70
2022-11-25T05:53:02.348Z,14.90
2022-11-25T05:54:02.323Z,14.90
2022-11-25T05:55:02.331Z,14.00
2022-11-25T05:56:02.425Z,14.90
2022-11-25T05:57:02.350Z,13.60
2022-11-25T05:58:02.257Z,13.60
2022-11-25T05:59:02.277Z,12.90
2022-11-25T06:00:02.255Z,13.80
2022-11-25T06:01:02.252Z,14.00
2022-11-25T06:02:02.655Z,14.00
2022-11-25T06:03:02.383Z,12.70
2022-11-25T06:04:02.231Z,12.00
2022-11-25T06:05:02.231Z,11.40
2022-11-25T06:06:02.160Z,11.10
2022-11-25T06:07:02.185Z,10.60
2022-11-25T06:08:02.146Z,10.30
2022-11-25T06:09:02.145Z,10.80
2022-11-25T06:10:03.492Z,10.30
2022-11-25T06:11:02.138Z,10.50
2022-11-25T06:12:02.107Z,10.50
2022-11-25T06:13:02.113Z,9.80
2022-11-25T06:14:02.063Z,9.70
2022-11-25T06:15:02.083Z,9.70
2022-11-25T06:16:07.558Z,9.50
2022-11-25T06:17:02.047Z,9.80
2022-11-25T06:18:02.005Z,8.80
2022-11-25T06:19:02.078Z,9.20
2022-11-25T06:20:01.986Z,9.00
2022-11-25T06:21:02.035Z,8.30
2022-11-25T06:22:01.988Z,8.90
2022-11-25T06:23:01.960Z,8.50
2022-11-25T06:24:01.937Z,8.00
2022-11-25T06:25:03.900Z,8.40
2022-11-25T06:26:01.920Z,9.20
2022-11-25T06:27:01.941Z,8.80
2022-11-25T06:28:17.270Z,9.20
2022-11-25T06:29:01.899Z,16.20
2022-11-25T06:30:01.884Z,73.50
2022-11-25T06:31:01.971Z,34.30
2022-11-25T06:32:01.874Z,17.80
2022-11-25T06:33:01.827Z,12.80
2022-11-25T06:34:01.789Z,20.00
2022-11-25T06:35:01.804Z,24.00
2022-11-25T06:36:01.809Z,12.70
2022-11-25T06:37:01.804Z,11.90
2022-11-25T06:38:01.743Z,10.20
2022-11-25T06:39:01.752Z,10.70
2022-11-25T06:40:01.712Z,10.90
2022-11-25T06:41:01.734Z,13.40
2022-11-25T06:42:01.724Z,12.70
2022-11-25T06:43:01.704Z,12.40
2022-11-25T06:44:01.673Z,13.30
2022-11-25T06:45:01.685Z,14.70
2022-11-25T06:46:01.662Z,14.60
2022-11-25T06:47:01.684Z,13.30
2022-11-25T06:48:01.606Z,12.50
2022-11-25T06:49:01.628Z,11.50
2022-11-25T06:50:01.579Z,11.50
2022-11-25T06:51:01.617Z,12.10
2022-11-25T06:52:01.590Z,11.60
2022-11-25T06:53:01.583Z,10.80
2022-11-25T06:54:01.541Z,11.90
2022-11-25T06:55:01.550Z,12.30
2022-11-25T06:56:01.542Z,12.20
2022-11-25T06:57:01.523Z,11.90
2022-11-25T06:58:20.555Z,11.10
2022-11-25T06:59:01.500Z,9.60
2022-11-25T07:00:01.467Z,12.20
2022-11-25T07:01:01.467Z,10.80
2022-11-25T07:02:01.536Z,11.80
2022-11-25T07:03:01.491Z,11.80
2022-11-25T07:04:01.418Z,10.70
2022-11-25T07:05:01.425Z,12.30
2022-11-25T07:06:01.399Z,11.30
2022-11-25T07:07:01.423Z,12.30
2022-11-25T07:08:01.378Z,12.20
2022-11-25T07:09:01.397Z,12.30
2022-11-25T07:10:01.339Z,11.50
2022-11-25T07:11:01.363Z,12.30
2022-11-25T07:12:01.341Z,12.10
2022-11-25T07:13:01.342Z,12.60
2022-11-25T07:14:01.289Z,13.50
2022-11-25T07:15:01.365Z,12.40
2022-11-25T07:16:01.311Z,12.60
2022-11-25T07:17:01.270Z,12.90
2022-11-25T07:18:01.237Z,13.80
2022-11-25T07:19:01.246Z,12.40
2022-11-25T07:20:01.201Z,11.20
2022-11-25T07:21:01.238Z,10.90
2022-11-25T07:22:01.200Z,10.60
2022-11-25T07:23:01.189Z,10.90
2022-11-25T07:24:01.170Z,10.70
2022-11-25T07:25:01.159Z,10.20
2022-11-25T07:26:01.141Z,10.40
2022-11-25T07:27:01.171Z,10.90
2022-11-25T07:28:01.101Z,10.50
2022-11-25T07:29:01.116Z,10.30
2022-11-25T07:30:41.478Z,10.70
2022-11-25T07:31:32.861Z,10.00
2022-11-25T07:32:04.423Z,9.40
2022-11-25T07:33:01.097Z,8.40
2022-11-25T07:34:01.104Z,8.70
2022-11-25T07:35:01.048Z,8.60
2022-11-25T07:36:01.003Z,8.00
2022-11-25T07:37:01.017Z,8.70
2022-11-25T07:38:01.019Z,7.80
2022-11-25T07:39:00.989Z,7.20
2022-11-25T07:40:00.985Z,6.60
2022-11-25T07:41:00.963Z,6.50
2022-11-25T07:42:00.947Z,7.50
2022-11-25T07:43:00.949Z,8.00
2022-11-25T07:44:00.918Z,8.20
2022-11-25T07:45:00.937Z,6.80
2022-11-25T07:46:00.913Z,6.50
2022-11-25T07:47:00.939Z,7.10
2022-11-25T07:48:00.884Z,6.50
2022-11-25T07:49:00.880Z,7.30
2022-11-25T07:50:00.848Z,6.60
2022-11-25T07:51:00.849Z,7.30
2022-11-25T07:52:00.794Z,7.20
2022-11-25T07:53:00.829Z,7.60
2022-11-25T07:54:00.771Z,7.10
2022-11-25T07:55:00.811Z,7.10
2022-11-25T07:56:00.734Z,7.80
2022-11-25T07:57:00.773Z,7.30
2022-11-25T07:58:00.723Z,7.80
2022-11-25T07:59:00.733Z,8.10
2022-11-25T08:00:00.731Z,7.90
2022-11-25T08:01:00.706Z,7.80
2022-11-25T08:02:00.835Z,7.30
2022-11-25T08:03:00.739Z,8.30
2022-11-25T08:04:00.633Z,9.50
2022-11-25T08:05:00.658Z,10.00
2022-11-25T08:06:00.620Z,11.20
2022-11-25T08:07:00.632Z,9.80
2022-11-25T08:08:00.689Z,10.30
2022-11-25T08:09:00.601Z,8.50
2022-11-25T08:10:00.580Z,8.20
2022-11-25T08:11:00.588Z,8.90
2022-11-25T08:12:00.535Z,9.40
2022-11-25T08:13:00.570Z,8.60
2022-11-25T08:14:00.515Z,7.40
2022-11-25T08:15:00.531Z,7.00
2022-11-25T08:16:00.548Z,7.70
2022-11-25T08:17:00.503Z,9.50
2022-11-25T08:18:00.500Z,16.20
2022-11-25T08:19:00.469Z,29.70
2022-11-25T08:20:00.444Z,13.50
2022-11-25T08:21:00.448Z,9.60
2022-11-25T08:22:00.408Z,11.10
2022-11-25T08:23:00.466Z,8.60
2022-11-25T08:24:00.391Z,7.60
2022-11-25T08:25:00.398Z,7.00
2022-11-25T08:26:00.353Z,6.40
2022-11-25T08:27:00.372Z,6.90
2022-11-25T08:28:00.356Z,6.90
2022-11-25T08:29:00.372Z,12.90
2022-11-25T08:30:00.314Z,21.00
2022-11-25T08:31:00.389Z,18.10
2022-11-25T08:32:00.270Z,17.30
2022-11-25T08:33:00.322Z,24.50
2022-11-25T08:34:00.256Z,41.30
2022-11-25T08:35:00.273Z,49.90
2022-11-25T08:36:00.228Z,84.20
2022-11-25T08:37:00.225Z,78.30
2022-11-25T08:38:00.225Z,110.60
2022-11-25T08:39:00.242Z,92.00
2022-11-25T08:40:00.799Z,62.70
2022-11-25T08:41:00.179Z,135.00
2022-11-25T08:42:00.139Z,112.90
2022-11-25T08:43:00.221Z,46.80
2022-11-25T08:44:00.129Z,59.80
2022-11-25T08:45:00.157Z,77.80
2022-11-25T08:46:00.136Z,44.00
2022-11-25T08:47:00.264Z,30.30
2022-11-25T08:48:00.080Z,22.30
2022-11-25T08:49:00.094Z,13.90
2022-11-25T08:50:00.052Z,13.20
2022-11-25T08:51:00.054Z,13.60
2022-11-25T08:52:00.015Z,13.40
2022-11-25T08:53:00.043Z,13.20
2022-11-25T08:54:00.011Z,12.90
2022-11-25T08:55:00.015Z,11.40
2022-11-25T08:56:00.126Z,12.30
2022-11-25T08:56:59.970Z,12.90
2022-11-25T08:57:59.935Z,12.70
2022-11-25T08:58:59.945Z,13.10
2022-11-25T08:59:59.943Z,12.30
2022-11-25T09:00:59.920Z,11.10
2022-11-25T09:01:59.940Z,9.00
2022-11-25T09:03:00.035Z,9.50
2022-11-25T09:03:59.873Z,10.60
2022-11-25T09:04:59.889Z,11.50
2022-11-25T09:05:59.830Z,8.90
2022-11-25T09:06:59.887Z,10.60
2022-11-25T09:07:59.897Z,13.30
2022-11-25T09:08:59.846Z,9.60
2022-11-25T09:09:59.801Z,10.20
2022-11-25T09:10:59.918Z,8.60
2022-11-25T09:11:59.773Z,8.40
2022-11-25T09:12:59.770Z,8.40
2022-11-25T09:13:59.819Z,8.60
2022-11-25T09:14:59.775Z,9.00
2022-11-25T09:15:59.801Z,9.20
2022-11-25T09:16:59.740Z,9.50
2022-11-25T09:17:59.675Z,9.40
2022-11-25T09:18:59.690Z,10.20
2022-11-25T09:19:59.674Z,11.90
2022-11-25T09:20:59.656Z,12.60
2022-11-25T09:21:59.623Z,9.50
2022-11-25T09:22:59.628Z,8.50
2022-11-25T09:23:59.603Z,7.70
2022-11-25T09:24:59.610Z,6.80
2022-11-25T09:25:59.609Z,6.90
2022-11-25T09:26:59.602Z,7.00
2022-11-25T09:27:59.552Z,7.40
2022-11-25T09:28:59.595Z,6.90
2022-11-25T09:29:59.562Z,7.70
2022-11-25T09:30:59.576Z,7.80
2022-11-25T09:31:59.636Z,7.30
2022-11-25T09:32:59.501Z,7.10
2022-11-25T09:33:59.502Z,7.90
2022-11-25T09:34:59.519Z,7.10
2022-11-25T09:35:59.476Z,7.30
2022-11-25T09:36:59.457Z,6.70
2022-11-25T09:37:59.450Z,7.60
2022-11-25T09:38:59.430Z,6.50
2022-11-25T09:39:59.417Z,7.90
2022-11-25T09:40:59.401Z,6.90
2022-11-25T09:41:59.353Z,7.90
2022-11-25T09:42:59.409Z,7.80
2022-11-25T09:43:59.335Z,6.80
2022-11-25T09:44:59.404Z,7.20
2022-11-25T09:45:59.355Z,7.60
2022-11-25T09:46:59.382Z,7.10
2022-11-25T09:47:59.279Z,8.30
2022-11-25T09:48:59.305Z,7.80
2022-11-25T09:49:59.292Z,7.40
2022-11-25T09:50:59.281Z,7.80
2022-11-25T09:51:59.225Z,8.80
2022-11-25T09:52:59.272Z,7.30
2022-11-25T09:53:59.207Z,11.40
2022-11-25T09:54:59.235Z,9.60
2022-11-25T09:56:01.617Z,13.40
2022-11-25T09:56:59.187Z,10.60
2022-11-25T09:57:59.810Z,9.50
2022-11-25T09:58:59.175Z,8.60
2022-11-25T09:59:59.181Z,8.00
2022-11-25T10:00:59.194Z,8.10
2022-11-25T10:01:59.195Z,9.30
2022-11-25T10:02:59.315Z,8.80
2022-11-25T10:03:59.177Z,9.60
2022-11-25T10:04:59.120Z,8.90
2022-11-25T10:05:59.117Z,8.50
2022-11-25T10:06:59.088Z,9.40
2022-11-25T10:07:59.066Z,8.60
2022-11-25T10:08:59.020Z,8.10
2022-11-25T10:09:59.018Z,7.50
2022-11-25T10:10:58.984Z,8.20
2022-11-25T10:11:59.051Z,7.20
2022-11-25T10:12:58.952Z,7.90
2022-11-25T10:13:58.974Z,7.70
2022-11-25T10:14:58.933Z,11.20
2022-11-25T10:15:59.103Z,24.20
2022-11-25T10:16:58.920Z,19.30
2022-11-25T10:17:58.929Z,15.30
2022-11-25T10:18:58.889Z,15.30
2022-11-25T10:19:58.912Z,20.00
2022-11-25T10:20:58.877Z,30.10
2022-11-25T10:21:58.890Z,33.40
2022-11-25T10:22:58.830Z,39.60
2022-11-25T10:23:58.902Z,32.70
2022-11-25T10:24:58.809Z,25.50
2022-11-25T10:25:58.878Z,22.50
2022-11-25T10:26:58.791Z,24.20
2022-11-25T10:27:58.805Z,35.90
2022-11-25T10:28:58.786Z,91.70
2022-11-25T10:29:58.784Z,38.40
2022-11-25T10:30:58.782Z,21.80
2022-11-25T10:31:58.739Z,17.60
2022-11-25T10:33:02.356Z,10.80
2022-11-25T10:33:58.758Z,9.00
2022-11-25T10:34:58.689Z,8.80
2022-11-25T10:35:58.697Z,12.00
2022-11-25T10:36:58.664Z,13.80
2022-11-25T10:37:58.658Z,12.50
2022-11-25T10:38:58.690Z,12.50
2022-11-25T10:39:58.687Z,13.50
2022-11-25T10:40:58.586Z,13.70
2022-11-25T10:41:58.612Z,14.70
2022-11-25T10:42:58.574Z,13.30
2022-11-25T10:43:58.595Z,15.00
2022-11-25T10:44:58.566Z,19.30
2022-11-25T10:45:58.562Z,16.10
2022-11-25T10:47:13.492Z,13.70
2022-11-25T10:47:58.633Z,11.20
2022-11-25T10:48:58.528Z,11.50
2022-11-25T10:49:58.508Z,11.50
2022-11-25T10:50:58.467Z,13.90
2022-11-25T10:51:58.483Z,11.40
2022-11-25T10:52:58.521Z,16.30
2022-11-25T10:53:58.463Z,12.30
2022-11-25T10:54:58.440Z,14.50
2022-11-25T10:55:58.455Z,15.40
2022-11-25T10:56:58.424Z,12.50
2022-11-25T10:57:58.431Z,14.20
2022-11-25T10:58:58.367Z,13.70
2022-11-25T10:59:58.370Z,13.10
2022-11-25T11:00:58.336Z,17.10
2022-11-25T11:01:58.433Z,15.00
2022-11-25T11:02:58.385Z,15.20
2022-11-25T11:03:58.326Z,14.60
2022-11-25T11:04:58.295Z,13.70
2022-11-25T11:05:58.306Z,17.80
2022-11-25T11:06:58.277Z,16.60
2022-11-25T11:07:58.317Z,15.50
2022-11-25T11:08:58.237Z,14.50
2022-11-25T11:09:58.254Z,13.40
2022-11-25T11:10:58.224Z,12.30
2022-11-25T11:11:58.244Z,11.60
2022-11-25T11:12:58.207Z,11.20
2022-11-25T11:13:58.215Z,10.30
2022-11-25T11:14:58.187Z,9.60
2022-11-25T11:15:58.204Z,9.90
2022-11-25T11:16:58.134Z,8.60
2022-11-25T11:17:58.182Z,7.80
2022-11-25T11:18:58.101Z,8.80
2022-11-25T11:19:58.137Z,8.10
2022-11-25T11:20:58.101Z,9.30
2022-11-25T11:21:58.095Z,8.40
2022-11-25T11:22:58.067Z,8.60
2022-11-25T11:23:58.086Z,9.20
2022-11-25T11:24:58.053Z,8.70
2022-11-25T11:25:58.056Z,9.20
2022-11-25T11:26:58.007Z,9.30
2022-11-25T11:27:58.025Z,8.00
2022-11-25T11:28:58.018Z,8.80
2022-11-25T11:29:58.013Z,7.30
2022-11-25T11:30:57.969Z,8.80
2022-11-25T11:31:57.987Z,8.90
2022-11-25T11:32:57.990Z,9.60
2022-11-25T11:33:57.960Z,9.70
2022-11-25T11:34:57.904Z,9.70
2022-11-25T11:35:57.956Z,10.20
2022-11-25T11:36:57.903Z,8.90
2022-11-25T11:37:57.882Z,9.20
2022-11-25T11:38:57.853Z,9.00
2022-11-25T11:39:57.873Z,8.60
2022-11-25T11:40:57.849Z,8.60
2022-11-25T11:41:57.847Z,8.70
2022-11-25T11:42:57.810Z,9.40
2022-11-25T11:43:57.815Z,9.60
2022-11-25T11:44:57.772Z,10.20
2022-11-25T11:45:57.812Z,11.00
2022-11-25T11:46:57.823Z,9.80
2022-11-25T11:47:57.730Z,9.90
2022-11-25T11:48:57.763Z,9.60
2022-11-25T11:49:57.709Z,9.80
2022-11-25T11:50:57.756Z,9.00
2022-11-25T11:51:57.683Z,9.30
2022-11-25T11:52:57.696Z,8.40
2022-11-25T11:53:57.657Z,9.00
2022-11-25T11:54:57.673Z,8.90
2022-11-25T11:56:27.044Z,8.70
2022-11-25T11:56:57.671Z,8.80
2022-11-25T11:57:57.609Z,9.40
2022-11-25T11:58:57.666Z,9.60
2022-11-25T11:59:57.581Z,8.50
2022-11-25T12:00:57.611Z,8.60
2022-11-25T12:01:57.611Z,8.60
2022-11-25T12:02:57.601Z,8.30
2022-11-25T12:03:57.523Z,7.70
2022-11-25T12:04:57.544Z,7.60
2022-11-25T12:05:57.522Z,6.50
2022-11-25T12:06:57.563Z,7.60
2022-11-25T12:07:57.533Z,7.90
2022-11-25T12:08:57.495Z,7.90
2022-11-25T12:09:57.452Z,8.70
2022-11-25T12:10:57.468Z,8.20
2022-11-25T12:11:57.417Z,9.70
2022-11-25T12:12:57.463Z,7.70
2022-11-25T12:14:00.798Z,8.50
2022-11-25T12:14:57.399Z,8.00
2022-11-25T12:15:57.436Z,8.20
2022-11-25T12:16:57.380Z,7.40
2022-11-25T12:17:57.375Z,7.20
2022-11-25T12:18:57.358Z,7.20
2022-11-25T12:19:57.309Z,8.60
2022-11-25T12:20:57.328Z,7.40
2022-11-25T12:21:57.311Z,7.80
2022-11-25T12:22:57.342Z,7.40
2022-11-25T12:23:57.306Z,7.50
2022-11-25T12:24:57.285Z,6.90
2022-11-25T12:25:57.239Z,6.90
2022-11-25T12:26:57.249Z,8.00
2022-11-25T12:27:57.220Z,13.80
2022-11-25T12:28:57.258Z,11.40
2022-11-25T12:29:57.208Z,9.00
2022-11-25T12:31:01.890Z,13.20
2022-11-25T12:31:57.228Z,15.20
2022-11-25T12:32:57.220Z,7.70
2022-11-25T12:33:57.134Z,8.00
2022-11-25T12:34:57.154Z,6.50
2022-11-25T12:35:57.106Z,7.00
2022-11-25T12:36:57.124Z,7.10
2022-11-25T12:37:57.143Z,6.80
2022-11-25T12:38:57.111Z,5.70
2022-11-25T12:39:57.079Z,5.80
2022-11-25T12:40:57.094Z,8.70
2022-11-25T12:41:57.055Z,11.70
2022-11-25T12:42:57.040Z,11.40
2022-11-25T12:43:57.004Z,7.10
2022-11-25T12:44:57.044Z,7.80
2022-11-25T12:45:57.079Z,5.80
2022-11-25T12:46:56.986Z,6.50
2022-11-25T12:47:56.961Z,5.40
2022-11-25T12:48:56.962Z,5.50
2022-11-25T12:49:56.963Z,5.80
2022-11-25T12:50:56.957Z,5.40
2022-11-25T12:51:56.926Z,5.90
2022-11-25T12:52:56.912Z,5.40
2022-11-25T12:53:56.910Z,5.50
2022-11-25T12:54:56.884Z,6.80
2022-11-25T12:55:56.867Z,6.80
2022-11-25T12:56:56.869Z,5.90
2022-11-25T12:57:56.812Z,5.70
2022-11-25T12:58:56.949Z,5.70
2022-11-25T13:00:17.523Z,5.70
2022-11-25T13:00:56.894Z,5.70
2022-11-25T13:01:56.973Z,5.80
2022-11-25T13:02:56.825Z,5.60
2022-11-25T13:03:56.737Z,4.80